^^
Station Historical Data
Daily Summary for October 12, 2018 Units:  Metric    English   Both
« Previous Day
Next Day »
Daily Weekly Monthly Yearly Custom
  High: Low: Average:
Temperature: -17.8 °C 9.8 °C 13.6 °C
Dew Point: -17.8 °C 2.4 °C 7 °C
Humidity: Humidity% 31% 66%
Wind Speed: 0km/h 0km/h 1km/h
Wind Gust: 0km/h - -
Wind- - SW
Pressure: 0 hPa 1012.8 hPa -
Precipitation: 0 mm    
Historical Graphs
 
 
Tabular Data for October 12, 2018
Time Temperature Dew Point Pressure Wind Wind Speed Wind Gust Humidity Rainfall Rate (Hourly)
-17.8 °C -17.8 °C 0 hPa Calm     Humidity% 0 mm
00:04 12.8 °C 8.5 °C 1013.8 hPa Calm   1.6 km/h 75% 0 mm
00:09 12.8 °C 8.5 °C 1013.8 hPa Calm   1.6 km/h 75% 0 mm
00:14 12.8 °C 8.5 °C 1013.8 hPa Calm   4.8 km/h 75% 0 mm
00:19 12.8 °C 8.7 °C 1013.4 hPa Calm   4.8 km/h 76% 0 mm
00:24 12.8 °C 8.5 °C 1013.4 hPa Calm   6.4 km/h 75% 0 mm
00:29 12.8 °C 8.5 °C 1013.8 hPa Calm   4.8 km/h 75% 0 mm
00:34 12.8 °C 8.7 °C 1013.8 hPa NW 1.4 km/h 8 km/h 76% 0 mm
00:39 12.8 °C 8.7 °C 1013.8 hPa ENE 3.2 km/h 3.2 km/h 76% 0 mm
00:44 12.8 °C 8.9 °C 1013.8 hPa Calm   1.6 km/h 77% 0 mm
00:49 12.8 °C 8.9 °C 1013.8 hPa Calm     77% 0 mm
00:54 12.8 °C 8.9 °C 1013.8 hPa Calm   3.2 km/h 77% 0 mm
00:59 12.8 °C 9.1 °C 1013.8 hPa Calm   6.4 km/h 78% 0 mm
01:04 12.8 °C 8.9 °C 1013.8 hPa Calm     77% 0 mm
01:09 12.8 °C 9.1 °C 1013.8 hPa Calm   1.6 km/h 78% 0 mm
01:14 12.7 °C 9 °C 1013.8 hPa Calm   6.4 km/h 78% 0 mm
01:19 12.7 °C 8.8 °C 1013.8 hPa Calm     77% 0 mm
01:24 12.7 °C 8.8 °C 1013.8 hPa Calm   1.6 km/h 77% 0 mm
01:29 12.6 °C 8.7 °C 1013.8 hPa Calm     77% 0 mm
01:34 12.4 °C 8.5 °C 1013.8 hPa North 1.4 km/h 3.2 km/h 77% 0 mm
01:39 12.4 °C 8.5 °C 1013.8 hPa Calm   1.6 km/h 77% 0 mm
01:44 12.3 °C 8.4 °C 1014.1 hPa Calm     77% 0 mm
01:49 12.3 °C 8.4 °C 1014.1 hPa Calm   1.6 km/h 77% 0 mm
01:54 12.2 °C 8.1 °C 1014.1 hPa Calm     76% 0 mm
01:59 12.2 °C 7.9 °C 1014.1 hPa Calm   1.6 km/h 75% 0 mm
02:04 12 °C 7.9 °C 1014.1 hPa Calm     76% 0 mm
02:09 11.9 °C 7.8 °C 1014.1 hPa Calm     76% 0 mm
02:14 11.8 °C 7.5 °C 1014.1 hPa Calm     75% 0 mm
02:19 11.7 °C 7.4 °C 1014.1 hPa Calm   3.2 km/h 75% 0 mm
02:24 11.6 °C 7.3 °C 1014.1 hPa Calm     75% 0 mm
02:29 11.6 °C 7.1 °C 1014.1 hPa Calm     74% 0 mm
02:34 11.5 °C 7 °C 1014.1 hPa Calm   6.4 km/h 74% 0 mm
02:39 11.4 °C 6.9 °C 1014.1 hPa Calm   1.6 km/h 74% 0 mm
02:44 11.4 °C 6.9 °C 1014.1 hPa Calm   9.7 km/h 74% 0 mm
02:49 11.3 °C 6.8 °C 1014.1 hPa Calm     74% 0 mm
02:54 11.3 °C 6.8 °C 1014.1 hPa Calm   4.8 km/h 74% 0 mm
02:59 11.3 °C 6.8 °C 1014.1 hPa Calm     74% 0 mm
03:04 11.3 °C 6.8 °C 1014.4 hPa Calm   3.2 km/h 74% 0 mm
03:09 11.2 °C 6.7 °C 1014.1 hPa Calm   4.8 km/h 74% 0 mm
03:14 11.2 °C 6.7 °C 1014.1 hPa Calm   3.2 km/h 74% 0 mm
03:19 11.1 °C 6.6 °C 1014.4 hPa Calm     74% 0 mm
03:24 11 °C 6.5 °C 1014.1 hPa Calm     74% 0 mm
03:29 10.9 °C 6.3 °C 1014.1 hPa Calm   1.6 km/h 73% 0 mm
03:34 10.9 °C 6.3 °C 1014.1 hPa Calm     73% 0 mm
03:39 10.8 °C 6.2 °C 1014.1 hPa Calm   3.2 km/h 73% 0 mm
03:44 10.8 °C 6.2 °C 1013.8 hPa Calm     73% 0 mm
03:49 10.7 °C 6.3 °C 1013.8 hPa Calm     74% 0 mm
03:54 10.7 °C 6.3 °C 1014.1 hPa Calm   1.6 km/h 74% 0 mm
03:59 10.7 °C 6.3 °C 1014.1 hPa Calm     74% 0 mm
04:04 10.7 °C 6.3 °C 1014.1 hPa Calm   4.8 km/h 74% 0 mm
04:09 10.7 °C 6.4 °C 1014.1 hPa Calm   4.8 km/h 75% 0 mm
04:14 10.7 °C 6.4 °C 1014.1 hPa Calm   1.6 km/h 75% 0 mm
04:19 10.7 °C 6.6 °C 1014.1 hPa NE 4.7 km/h 6.4 km/h 76% 0 mm
04:24 10.7 °C 6.6 °C 1014.1 hPa Calm   6.4 km/h 76% 0 mm
04:29 10.7 °C 6.6 °C 1014.1 hPa Calm   8 km/h 76% 0 mm
04:34 10.8 °C 6.9 °C 1014.1 hPa Calm   6.4 km/h 77% 0 mm
04:39 10.8 °C 6.9 °C 1014.1 hPa WNW 1.4 km/h 9.7 km/h 77% 0 mm
04:44 10.8 °C 6.9 °C 1014.1 hPa WNW 4.7 km/h 4.8 km/h 77% 0 mm
04:49 10.7 °C 6.8 °C 1013.8 hPa WNW 4.7 km/h 9.7 km/h 77% 0 mm
04:54 10.7 °C 6.8 °C 1013.8 hPa Calm     77% 0 mm
04:59 10.7 °C 6.8 °C 1013.8 hPa Calm   4.8 km/h 77% 0 mm
05:04 10.7 °C 6.8 °C 1014.1 hPa Calm   6.4 km/h 77% 0 mm
05:09 10.7 °C 6.8 °C 1013.8 hPa West 9.7 km/h 16.1 km/h 77% 0 mm
05:14 10.7 °C 6.8 °C 1013.8 hPa Calm   6.4 km/h 77% 0 mm
05:19 10.6 °C 6.7 °C 1013.8 hPa Calm   8 km/h 77% 0 mm
05:24 10.6 °C 6.7 °C 1013.8 hPa NW 4.7 km/h 4.8 km/h 77% 0 mm
05:29 10.6 °C 6.7 °C 1013.8 hPa West 1.4 km/h 8 km/h 77% 0 mm
05:34 10.5 °C 6.6 °C 1013.8 hPa Calm   8 km/h 77% 0 mm
05:39 10.5 °C 6.6 °C 1013.8 hPa NW 3.2 km/h 9.7 km/h 77% 0 mm
05:44 10.4 °C 6.5 °C 1013.8 hPa NW 1.4 km/h 11.3 km/h 77% 0 mm
05:49 10.4 °C 6.5 °C 1013.8 hPa Calm   3.2 km/h 77% 0 mm
05:54 10.4 °C 6.5 °C 1013.8 hPa NNW 1.4 km/h 4.8 km/h 77% 0 mm
05:59 10.3 °C 6.4 °C 1013.8 hPa Calm   8 km/h 77% 0 mm
06:04 10.3 °C 6.4 °C 1013.8 hPa Calm   3.2 km/h 77% 0 mm
06:09 10.3 °C 6.4 °C 1013.8 hPa NW 3.2 km/h 17.7 km/h 77% 0 mm
06:14 10.3 °C 6.6 °C 1013.8 hPa Calm   9.7 km/h 78% 0 mm
06:19 10.2 °C 6.5 °C 1013.8 hPa Calm   11.3 km/h 78% 0 mm
06:24 10.2 °C 6.5 °C 1013.8 hPa West 3.2 km/h 11.3 km/h 78% 0 mm
06:29 10.2 °C 6.5 °C 1013.4 hPa Calm   6.4 km/h 78% 0 mm
06:34 10.2 °C 6.5 °C 1013.4 hPa NNE 14.3 km/h 14.5 km/h 78% 0 mm
06:39 10.1 °C 6.4 °C 1013.4 hPa West 1.4 km/h 4.8 km/h 78% 0 mm
06:44 10.1 °C 6.4 °C 1013.4 hPa NW 1.4 km/h 17.7 km/h 78% 0 mm
06:49 10.1 °C 6.4 °C 1013.4 hPa Calm   11.3 km/h 78% 0 mm
06:54 10.1 °C 6.4 °C 1013.4 hPa Calm   9.7 km/h 78% 0 mm
06:59 10.1 °C 6.4 °C 1013.8 hPa NNE 3.2 km/h 14.5 km/h 78% 0 mm
07:04 10.1 °C 6.4 °C 1013.4 hPa Calm   8 km/h 78% 0 mm
07:09 10 °C 6.3 °C 1013.8 hPa Calm   8 km/h 78% 0 mm
07:14 10 °C 6.2 °C 1013.8 hPa NNW 1.4 km/h 6.4 km/h 77% 0 mm
07:19 9.9 °C 6.2 °C 1013.8 hPa Calm   12.9 km/h 78% 0 mm
07:24 9.9 °C 6.2 °C 1013.8 hPa WNW 1.4 km/h 11.3 km/h 78% 0 mm
07:29 9.9 °C 6.2 °C 1013.8 hPa Calm   3.2 km/h 78% 0 mm
07:34 9.9 °C 6.1 °C 1014.1 hPa SE 6.4 km/h 19.3 km/h 77% 0 mm
07:39 9.8 °C 6.1 °C 1013.8 hPa WNW 6.4 km/h 8 km/h 78% 0 mm
07:44 9.8 °C 6.1 °C 1013.8 hPa Calm   17.7 km/h 78% 0 mm
07:49 9.8 °C 6.1 °C 1013.8 hPa ENE 4.7 km/h 12.9 km/h 78% 0 mm
07:54 9.8 °C 6.1 °C 1013.8 hPa Calm   4.8 km/h 78% 0 mm
07:59 9.8 °C 6.1 °C 1013.8 hPa Calm   11.3 km/h 78% 0 mm
08:04 9.8 °C 6.1 °C 1013.8 hPa SW 3.2 km/h 12.9 km/h 78% 0 mm
08:09 9.8 °C 6.3 °C 1013.8 hPa Calm   12.9 km/h 79% 0 mm
08:14 9.8 °C 6.1 °C 1014.1 hPa Calm   14.5 km/h 78% 0 mm
08:19 9.8 °C 6.3 °C 1014.1 hPa ENE 1.4 km/h 8 km/h 79% 0 mm
08:24 9.9 °C 6.4 °C 1014.1 hPa ENE 7.9 km/h 11.3 km/h 79% 0 mm
08:29 9.9 °C 6.4 °C 1014.1 hPa Calm   14.5 km/h 79% 0 mm
08:34 9.9 °C 6.4 °C 1014.1 hPa West 9.7 km/h 9.7 km/h 79% 0 mm
08:39 10 °C 6.5 °C 1014.1 hPa NW 14.3 km/h 16.1 km/h 79% 0 mm
08:44 10 °C 6.5 °C 1014.1 hPa WNW 7.9 km/h 8 km/h 79% 0 mm
08:49 10.1 °C 6.6 °C 1014.4 hPa Calm   17.7 km/h 79% 0 mm
08:54 10.2 °C 6.7 °C 1014.4 hPa WNW 9.7 km/h 17.7 km/h 79% 0 mm
08:59 10.2 °C 6.7 °C 1014.4 hPa Calm   8 km/h 79% 0 mm
09:04 10.3 °C 6.8 °C 1014.4 hPa NW 1.4 km/h 4.8 km/h 79% 0 mm
09:09 10.4 °C 6.9 °C 1014.4 hPa NNW 7.9 km/h 17.7 km/h 79% 0 mm
09:14 10.5 °C 7 °C 1014.4 hPa NW 4.7 km/h 16.1 km/h 79% 0 mm
09:19 10.7 °C 7.2 °C 1014.4 hPa WSW 6.4 km/h 8 km/h 79% 0 mm
09:24 10.8 °C 7.3 °C 1014.8 hPa North 3.2 km/h 16.1 km/h 79% 0 mm
09:29 10.9 °C 7.4 °C 1014.8 hPa NNW 1.4 km/h 3.2 km/h 79% 0 mm
09:34 11 °C 7.5 °C 1014.8 hPa Calm   4.8 km/h 79% 0 mm
09:39 11.2 °C 7.7 °C 1014.8 hPa North 4.7 km/h 6.4 km/h 79% 0 mm
09:44 11.3 °C 7.8 °C 1014.8 hPa NW 1.4 km/h 8 km/h 79% 0 mm
09:49 11.4 °C 7.9 °C 1014.8 hPa NW 3.2 km/h 9.7 km/h 79% 0 mm
09:54 11.6 °C 7.9 °C 1014.8 hPa NNE 1.4 km/h 6.4 km/h 78% 0 mm
09:59 11.7 °C 8 °C 1014.8 hPa Calm     78% 0 mm
10:04 11.8 °C 8.1 °C 1015.1 hPa Calm   4.8 km/h 78% 0 mm
10:09 11.9 °C 8 °C 1015.1 hPa Calm   1.6 km/h 77% 0 mm
10:14 12.1 °C 8 °C 1015.1 hPa North 1.4 km/h 12.9 km/h 76% 0 mm
10:19 12.3 °C 8 °C 1015.1 hPa West 3.2 km/h 8 km/h 75% 0 mm
10:24 12.5 °C 8.2 °C 1015.1 hPa West 4.7 km/h 12.9 km/h 75% 0 mm
10:29 12.8 °C 8.1 °C 1015.1 hPa WNW 6.4 km/h 9.7 km/h 73% 0 mm
10:34 12.9 °C 8.2 °C 1015.1 hPa Calm   9.7 km/h 73% 0 mm
10:39 13.2 °C 8.3 °C 1015.1 hPa Calm   9.7 km/h 72% 0 mm
10:44 13.4 °C 8.2 °C 1015.1 hPa Calm     71% 0 mm
10:49 13.7 °C 8.1 °C 1015.1 hPa Calm   11.3 km/h 69% 0 mm
10:54 13.9 °C 7.9 °C 1015.1 hPa Calm   6.4 km/h 67% 0 mm
10:59 14.2 °C 7.9 °C 1015.1 hPa Calm     66% 0 mm
11:04 14.4 °C 7.9 °C 1015.5 hPa Calm   1.6 km/h 65% 0 mm
11:09 14.7 °C 8 °C 1015.5 hPa ENE 4.7 km/h 8 km/h 64% 0 mm
11:14 14.9 °C 7.9 °C 1015.5 hPa NE 3.2 km/h 3.2 km/h 63% 0 mm
11:19 15.1 °C 7.6 °C 1015.5 hPa NW 3.2 km/h 6.4 km/h 61% 0 mm
11:24 15.2 °C 7.7 °C 1015.5 hPa West 1.4 km/h 8 km/h 61% 0 mm
11:29 15.3 °C 7.6 °C 1015.8 hPa Calm   11.3 km/h 60% 0 mm
11:34 15.4 °C 7.2 °C 1015.8 hPa Calm   11.3 km/h 58% 0 mm
11:39 15.4 °C 7.4 °C 1015.8 hPa NE 1.4 km/h 12.9 km/h 59% 0 mm
11:44 15.6 °C 7.4 °C 1015.8 hPa WNW 1.4 km/h 12.9 km/h 58% 0 mm
11:49 15.7 °C 7.5 °C 1015.5 hPa Calm   11.3 km/h 58% 0 mm
11:54 15.8 °C 6.8 °C 1015.8 hPa Calm   14.5 km/h 55% 0 mm
11:59 15.9 °C 7.1 °C 1015.5 hPa Calm   8 km/h 56% 0 mm
12:04 16.1 °C 6.5 °C 1015.5 hPa NNW 1.4 km/h 9.7 km/h 53% 0 mm
12:09 16.2 °C 6.3 °C 1015.1 hPa Calm   11.3 km/h 52% 0 mm
12:14 16.3 °C 7 °C 1015.1 hPa Calm   6.4 km/h 54% 0 mm
12:19 16.5 °C 6.6 °C 1015.1 hPa Calm   3.2 km/h 52% 0 mm
12:24 16.6 °C 6.7 °C 1015.1 hPa NW 1.4 km/h 6.4 km/h 52% 0 mm
12:29 16.8 °C 6 °C 1014.8 hPa Calm   4.8 km/h 49% 0 mm
12:34 16.9 °C 5.5 °C 1014.8 hPa WNW 3.2 km/h 8 km/h 47% 0 mm
12:39 17.1 °C 6.3 °C 1014.8 hPa Calm   1.6 km/h 49% 0 mm
12:44 17.2 °C 5.8 °C 1014.8 hPa NW 4.7 km/h 6.4 km/h 47% 0 mm
12:49 17.3 °C 5.6 °C 1014.4 hPa Calm   3.2 km/h 46% 0 mm
12:54 17.5 °C 6.1 °C 1014.4 hPa NW 6.4 km/h 6.4 km/h 47% 0 mm
12:59 17.7 °C 5.3 °C 1014.4 hPa NNW 6.4 km/h 6.4 km/h 44% 0 mm
13:04 17.8 °C 6 °C 1014.8 hPa Calm   8 km/h 46% 0 mm
13:09 17.9 °C 5.8 °C 1014.8 hPa Calm   9.7 km/h 45% 0 mm
13:14 18.1 °C 5.7 °C 1014.8 hPa Calm   6.4 km/h 44% 0 mm
13:19 18.2 °C 5.7 °C 1014.4 hPa Calm   6.4 km/h 44% 0 mm
13:24 18.3 °C 5.2 °C 1014.4 hPa Calm   12.9 km/h 42% 0 mm
13:29 18.4 °C 5.6 °C 1014.4 hPa Calm   4.8 km/h 43% 0 mm
13:34 18.6 °C 6.1 °C 1014.4 hPa Calm   4.8 km/h 44% 0 mm
13:39 18.7 °C 5.5 °C 1014.1 hPa Calm   8 km/h 42% 0 mm
13:44 18.9 °C 5.7 °C 1014.1 hPa WNW 3.2 km/h 8 km/h 42% 0 mm
13:49 19.1 °C 5.2 °C 1014.1 hPa Calm     40% 0 mm
13:54 19.1 °C 4.4 °C 1014.1 hPa Calm   3.2 km/h 38% 0 mm
13:59 19.1 °C 2.9 °C 1013.8 hPa West 4.7 km/h 12.9 km/h 34% 0 mm
14:04 19.2 °C 3.8 °C 1013.8 hPa Calm   4.8 km/h 36% 0 mm
14:09 19.3 °C 4.2 °C 1013.8 hPa WNW 4.7 km/h 8 km/h 37% 0 mm
14:14 19.4 °C 4.3 °C 1013.4 hPa Calm   11.3 km/h 37% 0 mm
14:19 19.6 °C 4.1 °C 1013.4 hPa ENE 3.2 km/h 3.2 km/h 36% 0 mm
14:24 19.7 °C 5 °C 1013.4 hPa Calm   4.8 km/h 38% 0 mm
14:29 19.8 °C 3.9 °C 1013.4 hPa NE 6.4 km/h 8 km/h 35% 0 mm
14:34 19.9 °C 4.4 °C 1013.4 hPa Calm   12.9 km/h 36% 0 mm
14:39 19.9 °C 4.8 °C 1013.4 hPa Calm   1.6 km/h 37% 0 mm
14:44 19.9 °C 4.4 °C 1013.1 hPa Calm   4.8 km/h 36% 0 mm
14:49 19.9 °C 4.8 °C 1013.1 hPa Calm   8 km/h 37% 0 mm
14:54 19.8 °C 5.1 °C 1013.1 hPa Calm   9.7 km/h 38% 0 mm
14:59 19.9 °C 4.4 °C 1013.1 hPa Calm   9.7 km/h 36% 0 mm
15:04 19.9 °C 5.5 °C 1013.1 hPa Calm   1.6 km/h 39% 0 mm
15:09 20 °C 5.6 °C 1012.8 hPa Calm     39% 0 mm
15:14 20 °C 4.1 °C 1013.1 hPa Calm   8 km/h 35% 0 mm
15:19 20 °C 2.4 °C 1012.8 hPa Calm     31% 0 mm
15:24 20 °C 2.8 °C 1012.8 hPa Calm   8 km/h 32% 0 mm
15:29 20 °C 3.2 °C 1012.8 hPa Calm     33% 0 mm
15:34 19.9 °C 3.6 °C 1012.8 hPa Calm   1.6 km/h 34% 0 mm
15:39 20.1 °C 2.9 °C 1012.8 hPa Calm   1.6 km/h 32% 0 mm
15:44 20.1 °C 4.2 °C 1012.8 hPa Calm   4.8 km/h 35% 0 mm
15:49 20.1 °C 5 °C 1012.8 hPa Calm   3.2 km/h 37% 0 mm
15:54 20 °C 3.7 °C 1012.8 hPa WNW 4.7 km/h 8 km/h 34% 0 mm
15:59 19.9 °C 4 °C 1012.8 hPa Calm     35% 0 mm
16:04 19.9 °C 4.8 °C 1012.8 hPa Calm   4.8 km/h 37% 0 mm
16:09 19.9 °C 4.4 °C 1012.8 hPa Calm   6.4 km/h 36% 0 mm
16:14 19.9 °C 4.8 °C 1012.8 hPa Calm   1.6 km/h 37% 0 mm
16:19 20 °C 5.6 °C 1012.8 hPa Calm   4.8 km/h 39% 0 mm
16:24 20 °C 5.2 °C 1012.8 hPa WNW 4.7 km/h 4.8 km/h 38% 0 mm
16:29 20 °C 5.6 °C 1012.8 hPa NW 1.4 km/h 3.2 km/h 39% 0 mm
16:34 20 °C 5.2 °C 1012.8 hPa Calm   4.8 km/h 38% 0 mm
16:39 20 °C 5.2 °C 1012.8 hPa NW 1.4 km/h 1.6 km/h 38% 0 mm
16:44 19.9 °C 5.9 °C 1012.8 hPa Calm   6.4 km/h 40% 0 mm
16:49 19.9 °C 7.9 °C 1012.8 hPa Calm     46% 0 mm
16:54 19.8 °C 6.5 °C 1012.8 hPa North 1.4 km/h 1.6 km/h 42% 0 mm
16:59 19.7 °C 9.6 °C 1012.8 hPa Calm     52% 0 mm
17:04 19.4 °C 9.3 °C 1013.1 hPa Calm   4.8 km/h 52% 0 mm
17:09 19.3 °C 10.3 °C 1012.8 hPa Calm     56% 0 mm
17:14 19.1 °C 9.8 °C 1012.8 hPa Calm   1.6 km/h 55% 0 mm
17:19 18.9 °C 11.5 °C 1012.8 hPa Calm     62% 0 mm
17:24 18.7 °C 10 °C 1012.8 hPa Calm   8 km/h 57% 0 mm
17:29 18.6 °C 9.9 °C 1012.8 hPa WNW 3.2 km/h 4.8 km/h 57% 0 mm
17:34 18.6 °C 10.2 °C 1012.8 hPa Calm     58% 0 mm
17:39 18.6 °C 10.4 °C 1013.1 hPa Calm   4.8 km/h 59% 0 mm
17:44 18.5 °C 11.1 °C 1012.8 hPa WNW 1.4 km/h 1.6 km/h 62% 0 mm
17:49 18.3 °C 11.1 °C 1013.1 hPa Calm     63% 0 mm
17:54 18.1 °C 11.2 °C 1013.1 hPa Calm     64% 0 mm
17:59 17.8 °C 10.7 °C 1013.1 hPa Calm   3.2 km/h 63% 0 mm
18:04 17.7 °C 11.5 °C 1013.1 hPa Calm     67% 0 mm
18:09 17.5 °C 10.4 °C 1013.1 hPa Calm     63% 0 mm
18:14 17.3 °C 11.6 °C 1013.1 hPa Calm     69% 0 mm
18:19 17.2 °C 11.2 °C 1013.1 hPa Calm     68% 0 mm
18:24 16.9 °C 11.2 °C 1012.8 hPa Calm     69% 0 mm
18:29 16.7 °C 11.2 °C 1012.8 hPa Calm     70% 0 mm
18:34 16.4 °C 11.3 °C 1012.8 hPa Calm     72% 0 mm
18:39 16.3 °C 11.7 °C 1012.8 hPa Calm     74% 0 mm
18:44 16 °C 11.4 °C 1012.8 hPa Calm     74% 0 mm
18:49 15.7 °C 11.1 °C 1012.8 hPa Calm   1.6 km/h 74% 0 mm
18:54 15.3 °C 10.5 °C 1012.8 hPa Calm   4.8 km/h 73% 0 mm
18:59 15.2 °C 10.8 °C 1012.8 hPa Calm     75% 0 mm
19:04 15 °C 10.8 °C 1013.1 hPa Calm     76% 0 mm
19:09 14.8 °C 10.8 °C 1013.1 hPa Calm     77% 0 mm
19:14 14.6 °C 10.6 °C 1013.1 hPa Calm     77% 0 mm
19:19 14.4 °C 10.4 °C 1013.1 hPa Calm     77% 0 mm
19:24 14.3 °C 10.1 °C 1013.1 hPa Calm     76% 0 mm
19:29 14.2 °C 10.2 °C 1013.1 hPa Calm     77% 0 mm
19:34 14.2 °C 10.2 °C 1013.1 hPa Calm   1.6 km/h 77% 0 mm
19:39 14.1 °C 10.1 °C 1013.4 hPa Calm     77% 0 mm
19:44 13.9 °C 9.9 °C 1013.1 hPa Calm     77% 0 mm
19:49 13.8 °C 9.8 °C 1013.4 hPa Calm     77% 0 mm
19:54 13.7 °C 9.9 °C 1013.4 hPa Calm     78% 0 mm
19:59 13.6 °C 9.8 °C 1013.4 hPa Calm     78% 0 mm
20:04 13.4 °C 9.6 °C 1013.4 hPa Calm     78% 0 mm
20:09 13.3 °C 9.5 °C 1013.4 hPa Calm     78% 0 mm
20:14 13.2 °C 9.4 °C 1013.4 hPa Calm     78% 0 mm
20:19 13.1 °C 9.4 °C 1013.4 hPa Calm     78% 0 mm
20:24 12.8 °C 9.1 °C 1013.4 hPa Calm     78% 0 mm
20:29 12.7 °C 8.8 °C 1013.8 hPa Calm     77% 0 mm
20:34 12.6 °C 8.7 °C 1013.4 hPa Calm     77% 0 mm
20:39 12.4 °C 8.5 °C 1013.4 hPa Calm     77% 0 mm
20:44 12.3 °C 8.4 °C 1013.4 hPa Calm     77% 0 mm
20:49 12.2 °C 8.1 °C 1013.4 hPa Calm     76% 0 mm
20:54 12.1 °C 7.8 °C 1013.4 hPa Calm     75% 0 mm
20:59 11.9 °C 7.6 °C 1013.4 hPa Calm     75% 0 mm
21:04 11.8 °C 7.5 °C 1013.4 hPa Calm     75% 0 mm
21:09 11.8 °C 7.5 °C 1013.4 hPa Calm     75% 0 mm
21:14 11.7 °C 7.4 °C 1013.4 hPa Calm     75% 0 mm
21:19 11.6 °C 7.1 °C 1013.8 hPa Calm     74% 0 mm
21:24 11.6 °C 7.1 °C 1013.8 hPa Calm     74% 0 mm
21:29 11.5 °C 6.8 °C 1013.8 hPa Calm     73% 0 mm
21:34 11.4 °C 6.7 °C 1013.8 hPa Calm     73% 0 mm
21:39 11.3 °C 6.6 °C 1013.8 hPa Calm     73% 0 mm
21:44 11.3 °C 6.6 °C 1013.8 hPa Calm     73% 0 mm
21:49 11.2 °C 6.3 °C 1014.1 hPa Calm     72% 0 mm
21:54 11.1 °C 6.2 °C 1014.1 hPa Calm     72% 0 mm
21:59 11.1 °C 6.2 °C 1014.1 hPa Calm     72% 0 mm
22:04 10.9 °C 6.1 °C 1014.1 hPa Calm     72% 0 mm
22:09 10.9 °C 6.1 °C 1014.1 hPa Calm     72% 0 mm
22:14 10.8 °C 5.8 °C 1014.1 hPa Calm     71% 0 mm
22:19 10.8 °C 5.8 °C 1014.1 hPa Calm     71% 0 mm
22:24 10.8 °C 5.8 °C 1014.4 hPa Calm     71% 0 mm
22:29 10.7 °C 5.7 °C 1014.4 hPa Calm     71% 0 mm
22:34 10.7 °C 5.7 °C 1014.4 hPa Calm     71% 0 mm
22:39 10.7 °C 5.5 °C 1014.1 hPa Calm     70% 0 mm
22:44 10.6 °C 5.4 °C 1014.1 hPa Calm     70% 0 mm
22:49 10.6 °C 5.4 °C 1014.4 hPa Calm     70% 0 mm
22:54 10.6 °C 5.4 °C 1014.1 hPa Calm     70% 0 mm
22:59 10.5 °C 5.3 °C 1013.8 hPa Calm     70% 0 mm
23:04 10.5 °C 5.1 °C 1014.1 hPa Calm     69% 0 mm
23:09 10.4 °C 5 °C 1014.1 hPa Calm     69% 0 mm
23:14 10.4 °C 5 °C 1014.4 hPa Calm     69% 0 mm
23:19 10.3 °C 4.9 °C 1014.4 hPa Calm     69% 0 mm
23:24 10.3 °C 4.9 °C 1014.4 hPa Calm     69% 0 mm
23:29 10.3 °C 4.9 °C 1014.1 hPa Calm     69% 0 mm
23:34 10.3 °C 4.7 °C 1014.4 hPa Calm     68% 0 mm
23:39 10.3 °C 4.7 °C 1014.4 hPa Calm     68% 0 mm
23:44 10.3 °C 4.7 °C 1014.4 hPa Calm     68% 0 mm
23:49 10.3 °C 4.7 °C 1014.4 hPa Calm     68% 0 mm
23:54 10.4 °C 4.5 °C 1014.4 hPa Calm     67% 0 mm
23:59 10.4 °C 4.5 °C 1014.4 hPa Calm     67% 0 mm
Ellijay Weather
Compliments of Weather Underground - 2.5 mb